CYUX

Details ICAO CYUX (YUX)
Name Hall Beach
Region Canada
Timezone America/Iqaluit (UTC-4.0)
Plans Departing 7
Arriving 18
Stats Elevation 27 ft / 8 m (AMSL)
Location 68.775731° -81.242836°
Runways 1
Magnetic Variation 27.138° W
Sunrise 2018-05-21 05:53:52 UTC / 2018-05-21 01:53:52 Local
Sunset 2018-05-22 04:52:08 UTC / 2018-05-22 00:52:08 Local
Advertisement - Login to hide

Runways

ID Width Length Bearing (true) Bearing (mag) Surface Threshold Offset Overrun Length
12T 151 ft / 46 m 5,389 ft / 1,642 m 124.28° 151.42° Gravel 0 ft / 0 m 0 ft / 0 m
30T 151 ft / 46 m 5,389 ft / 1,642 m 304.32° 331.46° Gravel 0 ft / 0 m 0 ft / 0 m

Map

Weather


0- 5 10 15 20 25 30 35+ Temperature / ° C

Clouds and Precipitation
Forecast for 2018-05-21 18:00 UTC. Updated 2 hours ago

Ground ~20,000 ft ~40,000 ft Winds

METAR

CYUX 211800Z 32010KT 15SM FEW020 FEW070 M07/M10 A2993 RMK SC1AC1 AC TR SLP139

TAF

TAF CYUX 211838Z 2119/2207 32010KT P6SM FEW030 RMK NXT FCST BY 220100Z

Frequencies

Recorded 128.69 MHz AWOS
Unicom 126.70 MHz MULTICOM
Unicom 122.20 MHz MULTICOM
Unicom 126.90 MHz MULTICOM
Warning: Do not use this data for real-world aviation or navigation. No guarantee of current accuracy is given.